This is the latest recevied weather packets stored in our database for station/object DG7YEO-13. If no packets are shown the sender has not sent any weather packets the latest 10 day(s).
| Time | Temp. | Humidity | Pressure | Rain* | Wind** | Luminosity | Snow |
|---|---|---|---|---|---|---|---|
| 1777625225 | 18.33° C | 42% | 1027.2 hPa | 0 mm | - | - | - |
| 1777624325 | 18.33° C | 42% | 1027.3 hPa | 0 mm | - | - | - |
| 1777623425 | 18.33° C | 43% | 1027.4 hPa | 0 mm | - | - | - |
| 1777622525 | 17.22° C | 46% | 1027.4 hPa | 0 mm | - | - | - |
| 1777621625 | 16.67° C | 46% | 1027.4 hPa | 0 mm | - | - | - |
| 1777620725 | 16.11° C | 50% | 1027.5 hPa | 0 mm | - | - | - |
| 1777619825 | 15.56° C | 51% | 1027.5 hPa | 0 mm | - | - | - |
| 1777618925 | 14.44° C | 52% | 1027.5 hPa | 0 mm | - | - | - |
| 1777618025 | 13.89° C | 55% | 1027.5 hPa | 0 mm | - | - | - |
| 1777617125 | 13.33° C | 58% | 1027.6 hPa | 0 mm | - | - | - |
| 1777616225 | 12.22° C | 59% | 1027.6 hPa | 0 mm | - | - | - |
| 1777615325 | 11.67° C | 62% | 1027.6 hPa | 0 mm | - | - | - |
| 1777614426 | 10.56° C | 65% | 1027.6 hPa | 0 mm | - | - | - |
| 1777613525 | 9.44° C | 69% | 1027.6 hPa | 0 mm | - | - | - |
| 1777612625 | 8.89° C | 69% | 1027.5 hPa | 0 mm | - | - | - |
| 1777611725 | 8.89° C | 69% | 1027.5 hPa | 0 mm | - | - | - |
| 1777610825 | 8.89° C | 69% | 1027.4 hPa | 0 mm | - | - | - |
| 1777609925 | 8.89° C | 69% | 1027.3 hPa | 0 mm | - | - | - |
| 1777609025 | 8.89° C | 67% | 1027.3 hPa | 0 mm | - | - | - |
| 1777608125 | 9.44° C | 67% | 1027.1 hPa | 0 mm | - | - | - |
| 1777607225 | 9.44° C | 66% | 1027 hPa | 0 mm | - | - | - |
| 1777606325 | 9.44° C | 66% | 1027 hPa | 0 mm | - | - | - |
| 1777605425 | 9.44° C | 66% | 1027.1 hPa | 0 mm | - | - | - |
| 1777604525 | 9.44° C | 65% | 1027.1 hPa | 0 mm | - | - | - |
| 1777603625 | 9.44° C | 65% | 1027.1 hPa | 0 mm | - | - | - |
* Rain latest hour (hover to see other rain measurements)
** Current wind speed in m/s (hover to see current wind gust speed)